sensor_id;sensor_type;location;lat;lon;timestamp;P1;durP1;ratioP1;P2;durP2;ratioP2
62479;SDS011;48526;48.846;2.322;2023-07-02T00:02:39;36.00;;;25.25;;
62479;SDS011;48526;48.846;2.322;2023-07-02T00:05:34;31.00;;;27.00;;
62479;SDS011;48526;48.846;2.322;2023-07-02T00:08:26;39.50;;;27.50;;
62479;SDS011;48526;48.846;2.322;2023-07-02T00:14:05;39.50;;;32.50;;
62479;SDS011;48526;48.846;2.322;2023-07-02T00:16:51;39.00;;;32.25;;
62479;SDS011;48526;48.846;2.322;2023-07-02T00:19:39;32.50;;;24.50;;
62479;SDS011;48526;48.846;2.322;2023-07-02T00:22:42;39.25;;;31.25;;
62479;SDS011;48526;48.846;2.322;2023-07-02T00:25:48;38.75;;;28.50;;
62479;SDS011;48526;48.846;2.322;2023-07-02T00:28:44;34.00;;;28.25;;
62479;SDS011;48526;48.846;2.322;2023-07-02T00:35:17;40.50;;;30.00;;
62479;SDS011;48526;48.846;2.322;2023-07-02T00:38:27;31.25;;;27.75;;
62479;SDS011;48526;48.846;2.322;2023-07-02T00:41:23;34.75;;;29.25;;
62479;SDS011;48526;48.846;2.322;2023-07-02T00:47:12;37.00;;;28.75;;
62479;SDS011;48526;48.846;2.322;2023-07-02T00:49:57;29.75;;;25.75;;
62479;SDS011;48526;48.846;2.322;2023-07-02T00:52:40;40.00;;;31.75;;
62479;SDS011;48526;48.846;2.322;2023-07-02T00:55:38;39.75;;;32.50;;
62479;SDS011;48526;48.846;2.322;2023-07-02T00:58:37;38.50;;;29.00;;
62479;SDS011;48526;48.846;2.322;2023-07-02T01:01:34;45.00;;;32.25;;
62479;SDS011;48526;48.846;2.322;2023-07-02T01:04:28;44.50;;;32.00;;
62479;SDS011;48526;48.846;2.322;2023-07-02T01:07:12;41.00;;;30.75;;
62479;SDS011;48526;48.846;2.322;2023-07-02T01:10:14;39.00;;;31.00;;
62479;SDS011;48526;48.846;2.322;2023-07-02T01:12:50;46.50;;;32.00;;
62479;SDS011;48526;48.846;2.322;2023-07-02T01:15:39;34.75;;;28.50;;
62479;SDS011;48526;48.846;2.322;2023-07-02T01:18:20;35.25;;;28.25;;
62479;SDS011;48526;48.846;2.322;2023-07-02T01:21:09;33.75;;;27.75;;
62479;SDS011;48526;48.846;2.322;2023-07-02T01:24:04;44.00;;;34.75;;
62479;SDS011;48526;48.846;2.322;2023-07-02T01:26:43;37.50;;;28.75;;
62479;SDS011;48526;48.846;2.322;2023-07-02T01:29:17;46.75;;;32.00;;
62479;SDS011;48526;48.846;2.322;2023-07-02T01:32:14;29.00;;;20.25;;
62479;SDS011;48526;48.846;2.322;2023-07-02T01:34:50;36.75;;;31.00;;
62479;SDS011;48526;48.846;2.322;2023-07-02T01:37:38;36.50;;;30.00;;
62479;SDS011;48526;48.846;2.322;2023-07-02T01:43:47;32.75;;;24.50;;
62479;SDS011;48526;48.846;2.322;2023-07-02T01:46:38;32.25;;;26.25;;
62479;SDS011;48526;48.846;2.322;2023-07-02T01:49:41;35.00;;;29.25;;
62479;SDS011;48526;48.846;2.322;2023-07-02T01:52:22;38.50;;;27.00;;
62479;SDS011;48526;48.846;2.322;2023-07-02T01:54:58;33.25;;;27.00;;
62479;SDS011;48526;48.846;2.322;2023-07-02T01:58:03;35.75;;;31.75;;
62479;SDS011;48526;48.846;2.322;2023-07-02T02:00:46;35.00;;;31.50;;
62479;SDS011;48526;48.846;2.322;2023-07-02T02:03:42;32.25;;;25.25;;
62479;SDS011;48526;48.846;2.322;2023-07-02T02:06:10;34.50;;;29.50;;
62479;SDS011;48526;48.846;2.322;2023-07-02T02:09:02;32.25;;;26.75;;
62479;SDS011;48526;48.846;2.322;2023-07-02T02:11:56;34.00;;;30.00;;
62479;SDS011;48526;48.846;2.322;2023-07-02T02:14:56;27.75;;;24.00;;
62479;SDS011;48526;48.846;2.322;2023-07-02T02:17:54;42.75;;;33.00;;
62479;SDS011;48526;48.846;2.322;2023-07-02T02:20:30;33.50;;;28.00;;
62479;SDS011;48526;48.846;2.322;2023-07-02T02:23:15;33.25;;;27.50;;
62479;SDS011;48526;48.846;2.322;2023-07-02T02:25:46;31.25;;;29.25;;
62479;SDS011;48526;48.846;2.322;2023-07-02T02:28:40;38.50;;;28.00;;
62479;SDS011;48526;48.846;2.322;2023-07-02T02:31:16;36.75;;;29.50;;
62479;SDS011;48526;48.846;2.322;2023-07-02T02:34:04;35.00;;;26.00;;
62479;SDS011;48526;48.846;2.322;2023-07-02T02:37:18;28.25;;;24.50;;
62479;SDS011;48526;48.846;2.322;2023-07-02T02:40:05;35.25;;;28.25;;
62479;SDS011;48526;48.846;2.322;2023-07-02T02:43:17;27.25;;;23.50;;
62479;SDS011;48526;48.846;2.322;2023-07-02T02:45:43;26.50;;;18.75;;
62479;SDS011;48526;48.846;2.322;2023-07-02T02:48:19;33.25;;;26.75;;
62479;SDS011;48526;48.846;2.322;2023-07-02T02:50:54;30.50;;;25.50;;
62479;SDS011;48526;48.846;2.322;2023-07-02T02:53:43;35.75;;;26.50;;
62479;SDS011;48526;48.846;2.322;2023-07-02T02:56:18;29.75;;;22.25;;
62479;SDS011;48526;48.846;2.322;2023-07-02T02:59:22;33.00;;;25.25;;
62479;SDS011;48526;48.846;2.322;2023-07-02T03:01:57;35.50;;;25.75;;
62479;SDS011;48526;48.846;2.322;2023-07-02T03:04:50;32.25;;;28.75;;
62479;SDS011;48526;48.846;2.322;2023-07-02T03:07:43;32.75;;;24.25;;
62479;SDS011;48526;48.846;2.322;2023-07-02T03:10:51;28.25;;;24.50;;
62479;SDS011;48526;48.846;2.322;2023-07-02T03:13:26;26.75;;;21.75;;
62479;SDS011;48526;48.846;2.322;2023-07-02T03:16:45;44.00;;;26.00;;
62479;SDS011;48526;48.846;2.322;2023-07-02T03:19:41;32.25;;;23.00;;
62479;SDS011;48526;48.846;2.322;2023-07-02T03:22:29;36.50;;;26.25;;
62479;SDS011;48526;48.846;2.322;2023-07-02T03:25:25;33.75;;;28.00;;
62479;SDS011;48526;48.846;2.322;2023-07-02T03:30:53;31.25;;;20.50;;
62479;SDS011;48526;48.846;2.322;2023-07-02T03:33:58;35.25;;;25.25;;
62479;SDS011;48526;48.846;2.322;2023-07-02T03:36:54;28.25;;;19.25;;
62479;SDS011;48526;48.846;2.322;2023-07-02T03:39:27;35.25;;;29.00;;
62479;SDS011;48526;48.846;2.322;2023-07-02T03:42:08;23.00;;;21.50;;
62479;SDS011;48526;48.846;2.322;2023-07-02T03:44:36;40.75;;;28.25;;
62479;SDS011;48526;48.846;2.322;2023-07-02T03:47:11;32.25;;;24.75;;
62479;SDS011;48526;48.846;2.322;2023-07-02T03:49:44;31.75;;;26.50;;
62479;SDS011;48526;48.846;2.322;2023-07-02T03:52:18;28.75;;;23.75;;
62479;SDS011;48526;48.846;2.322;2023-07-02T03:54:54;28.50;;;24.75;;
62479;SDS011;48526;48.846;2.322;2023-07-02T03:57:32;31.00;;;25.00;;
62479;SDS011;48526;48.846;2.322;2023-07-02T04:00:19;24.75;;;24.25;;
62479;SDS011;48526;48.846;2.322;2023-07-02T04:02:56;29.75;;;23.00;;
62479;SDS011;48526;48.846;2.322;2023-07-02T04:05:21;34.00;;;26.50;;
62479;SDS011;48526;48.846;2.322;2023-07-02T04:08:02;25.50;;;18.25;;
62479;SDS011;48526;48.846;2.322;2023-07-02T04:10:41;26.25;;;22.25;;
62479;SDS011;48526;48.846;2.322;2023-07-02T04:13:18;28.75;;;24.25;;
62479;SDS011;48526;48.846;2.322;2023-07-02T04:15:43;27.50;;;21.50;;
62479;SDS011;48526;48.846;2.322;2023-07-02T04:18:11;31.50;;;24.25;;
62479;SDS011;48526;48.846;2.322;2023-07-02T04:20:37;31.00;;;25.75;;
62479;SDS011;48526;48.846;2.322;2023-07-02T04:23:23;21.75;;;16.00;;
62479;SDS011;48526;48.846;2.322;2023-07-02T04:26:09;27.25;;;22.75;;
62479;SDS011;48526;48.846;2.322;2023-07-02T04:31:52;29.00;;;23.50;;
62479;SDS011;48526;48.846;2.322;2023-07-02T04:34:41;27.50;;;21.00;;
62479;SDS011;48526;48.846;2.322;2023-07-02T04:37:30;22.00;;;20.25;;
62479;SDS011;48526;48.846;2.322;2023-07-02T04:40:07;30.25;;;22.50;;
62479;SDS011;48526;48.846;2.322;2023-07-02T04:42:39;31.25;;;21.50;;
62479;SDS011;48526;48.846;2.322;2023-07-02T04:45:30;28.25;;;22.00;;
62479;SDS011;48526;48.846;2.322;2023-07-02T04:48:28;31.00;;;24.50;;
62479;SDS011;48526;48.846;2.322;2023-07-02T04:51:16;25.75;;;22.75;;
62479;SDS011;48526;48.846;2.322;2023-07-02T04:54:10;26.00;;;22.75;;
62479;SDS011;48526;48.846;2.322;2023-07-02T04:57:03;28.75;;;19.50;;
62479;SDS011;48526;48.846;2.322;2023-07-02T05:00:07;24.75;;;23.25;;
62479;SDS011;48526;48.846;2.322;2023-07-02T05:02:36;34.75;;;28.50;;
62479;SDS011;48526;48.846;2.322;2023-07-02T05:05:11;26.25;;;20.00;;
62479;SDS011;48526;48.846;2.322;2023-07-02T05:07:42;23.50;;;21.00;;
62479;SDS011;48526;48.846;2.322;2023-07-02T05:10:21;23.25;;;18.75;;
62479;SDS011;48526;48.846;2.322;2023-07-02T05:13:13;20.50;;;18.00;;
62479;SDS011;48526;48.846;2.322;2023-07-02T05:16:11;21.75;;;21.25;;
62479;SDS011;48526;48.846;2.322;2023-07-02T05:18:47;28.00;;;24.25;;
62479;SDS011;48526;48.846;2.322;2023-07-02T05:21:43;30.25;;;21.75;;
62479;SDS011;48526;48.846;2.322;2023-07-02T05:24:41;30.75;;;20.50;;
62479;SDS011;48526;48.846;2.322;2023-07-02T05:27:21;22.50;;;14.50;;
62479;SDS011;48526;48.846;2.322;2023-07-02T05:30:02;34.25;;;26.25;;
62479;SDS011;48526;48.846;2.322;2023-07-02T05:36:07;19.75;;;16.50;;
62479;SDS011;48526;48.846;2.322;2023-07-02T05:38:46;24.25;;;17.50;;
62479;SDS011;48526;48.846;2.322;2023-07-02T05:41:36;28.00;;;22.75;;
62479;SDS011;48526;48.846;2.322;2023-07-02T05:44:24;24.25;;;21.75;;
62479;SDS011;48526;48.846;2.322;2023-07-02T05:50:39;17.50;;;13.75;;
62479;SDS011;48526;48.846;2.322;2023-07-02T05:53:32;25.25;;;18.25;;
62479;SDS011;48526;48.846;2.322;2023-07-02T05:56:14;28.00;;;25.25;;
62479;SDS011;48526;48.846;2.322;2023-07-02T05:59:00;26.00;;;22.25;;
62479;SDS011;48526;48.846;2.322;2023-07-02T06:02:07;25.50;;;21.50;;
62479;SDS011;48526;48.846;2.322;2023-07-02T06:04:54;31.25;;;22.50;;
62479;SDS011;48526;48.846;2.322;2023-07-02T06:07:42;26.00;;;19.25;;
62479;SDS011;48526;48.846;2.322;2023-07-02T06:10:30;27.50;;;24.75;;
62479;SDS011;48526;48.846;2.322;2023-07-02T06:13:17;32.75;;;20.50;;
62479;SDS011;48526;48.846;2.322;2023-07-02T06:16:13;25.50;;;22.50;;
62479;SDS011;48526;48.846;2.322;2023-07-02T06:18:48;29.00;;;24.50;;
62479;SDS011;48526;48.846;2.322;2023-07-02T06:21:43;27.50;;;20.50;;
62479;SDS011;48526;48.846;2.322;2023-07-02T06:24:37;25.25;;;23.25;;
62479;SDS011;48526;48.846;2.322;2023-07-02T06:27:15;29.25;;;21.25;;
62479;SDS011;48526;48.846;2.322;2023-07-02T06:29:56;29.25;;;20.00;;
62479;SDS011;48526;48.846;2.322;2023-07-02T06:32:31;31.00;;;24.00;;
62479;SDS011;48526;48.846;2.322;2023-07-02T06:38:41;23.50;;;22.75;;
62479;SDS011;48526;48.846;2.322;2023-07-02T06:41:39;25.00;;;18.75;;
62479;SDS011;48526;48.846;2.322;2023-07-02T06:44:28;21.00;;;18.50;;
62479;SDS011;48526;48.846;2.322;2023-07-02T06:47:15;22.25;;;19.75;;
62479;SDS011;48526;48.846;2.322;2023-07-02T06:50:00;24.75;;;19.00;;
62479;SDS011;48526;48.846;2.322;2023-07-02T06:55:50;27.25;;;19.00;;
62479;SDS011;48526;48.846;2.322;2023-07-02T06:58:26;9.50;;;9.00;;
62479;SDS011;48526;48.846;2.322;2023-07-02T07:04:43;26.00;;;23.25;;
62479;SDS011;48526;48.846;2.322;2023-07-02T07:07:16;15.75;;;12.25;;
62479;SDS011;48526;48.846;2.322;2023-07-02T07:09:57;26.25;;;22.50;;
62479;SDS011;48526;48.846;2.322;2023-07-02T07:12:35;25.00;;;22.00;;
62479;SDS011;48526;48.846;2.322;2023-07-02T07:15:33;22.50;;;20.75;;
62479;SDS011;48526;48.846;2.322;2023-07-02T07:18:39;24.00;;;22.50;;
62479;SDS011;48526;48.846;2.322;2023-07-02T07:21:15;28.25;;;19.75;;
62479;SDS011;48526;48.846;2.322;2023-07-02T07:24:14;33.00;;;23.50;;
62479;SDS011;48526;48.846;2.322;2023-07-02T07:27:09;27.75;;;21.75;;
62479;SDS011;48526;48.846;2.322;2023-07-02T07:33:04;22.00;;;18.25;;
62479;SDS011;48526;48.846;2.322;2023-07-02T07:35:44;30.25;;;22.25;;
62479;SDS011;48526;48.846;2.322;2023-07-02T07:38:33;30.50;;;23.00;;
62479;SDS011;48526;48.846;2.322;2023-07-02T07:41:56;27.50;;;21.00;;
62479;SDS011;48526;48.846;2.322;2023-07-02T07:44:49;25.75;;;21.00;;
62479;SDS011;48526;48.846;2.322;2023-07-02T07:47:43;26.00;;;25.00;;
62479;SDS011;48526;48.846;2.322;2023-07-02T07:53:47;23.50;;;20.50;;
62479;SDS011;48526;48.846;2.322;2023-07-02T07:56:43;27.50;;;23.50;;
62479;SDS011;48526;48.846;2.322;2023-07-02T07:59:24;29.75;;;24.00;;
62479;SDS011;48526;48.846;2.322;2023-07-02T08:02:24;30.00;;;20.50;;
62479;SDS011;48526;48.846;2.322;2023-07-02T08:09:12;24.00;;;19.25;;
62479;SDS011;48526;48.846;2.322;2023-07-02T08:11:47;27.25;;;22.50;;
62479;SDS011;48526;48.846;2.322;2023-07-02T08:14:35;34.25;;;25.75;;
62479;SDS011;48526;48.846;2.322;2023-07-02T08:17:14;26.75;;;21.25;;
62479;SDS011;48526;48.846;2.322;2023-07-02T08:20:01;23.25;;;19.50;;
62479;SDS011;48526;48.846;2.322;2023-07-02T08:22:30;21.75;;;21.25;;
62479;SDS011;48526;48.846;2.322;2023-07-02T08:34:09;25.75;;;23.00;;
62479;SDS011;48526;48.846;2.322;2023-07-02T08:36:55;27.50;;;20.00;;
62479;SDS011;48526;48.846;2.322;2023-07-02T08:39:51;21.00;;;20.25;;
62479;SDS011;48526;48.846;2.322;2023-07-02T08:42:29;25.25;;;21.75;;
62479;SDS011;48526;48.846;2.322;2023-07-02T08:45:16;28.00;;;25.25;;
62479;SDS011;48526;48.846;2.322;2023-07-02T08:47:49;23.00;;;21.25;;
62479;SDS011;48526;48.846;2.322;2023-07-02T08:50:44;13.25;;;11.00;;
62479;SDS011;48526;48.846;2.322;2023-07-02T08:53:36;22.75;;;19.75;;
62479;SDS011;48526;48.846;2.322;2023-07-02T08:56:17;19.00;;;18.75;;
62479;SDS011;48526;48.846;2.322;2023-07-02T09:02:56;18.25;;;16.25;;
62479;SDS011;48526;48.846;2.322;2023-07-02T09:05:48;23.50;;;20.00;;
62479;SDS011;48526;48.846;2.322;2023-07-02T09:15:08;21.75;;;18.75;;
62479;SDS011;48526;48.846;2.322;2023-07-02T09:17:43;26.25;;;18.75;;
62479;SDS011;48526;48.846;2.322;2023-07-02T09:20:38;21.25;;;18.50;;
62479;SDS011;48526;48.846;2.322;2023-07-02T09:26:58;18.75;;;16.25;;
62479;SDS011;48526;48.846;2.322;2023-07-02T09:33:11;23.00;;;21.75;;
62479;SDS011;48526;48.846;2.322;2023-07-02T09:36:09;21.75;;;17.75;;
62479;SDS011;48526;48.846;2.322;2023-07-02T09:42:35;24.00;;;20.75;;
62479;SDS011;48526;48.846;2.322;2023-07-02T09:45:30;22.50;;;19.25;;
62479;SDS011;48526;48.846;2.322;2023-07-02T09:48:50;25.75;;;21.50;;
62479;SDS011;48526;48.846;2.322;2023-07-02T09:51:26;24.25;;;18.00;;
62479;SDS011;48526;48.846;2.322;2023-07-02T09:54:41;22.00;;;16.50;;
62479;SDS011;48526;48.846;2.322;2023-07-02T09:57:36;19.25;;;17.25;;
62479;SDS011;48526;48.846;2.322;2023-07-02T10:00:30;21.00;;;21.00;;
62479;SDS011;48526;48.846;2.322;2023-07-02T10:03:27;20.00;;;18.00;;
62479;SDS011;48526;48.846;2.322;2023-07-02T10:16:00;17.25;;;14.00;;
62479;SDS011;48526;48.846;2.322;2023-07-02T10:19:13;18.00;;;16.00;;
62479;SDS011;48526;48.846;2.322;2023-07-02T10:22:04;20.50;;;18.25;;
62479;SDS011;48526;48.846;2.322;2023-07-02T10:34:40;19.25;;;15.75;;
62479;SDS011;48526;48.846;2.322;2023-07-02T10:41:01;18.00;;;16.25;;
62479;SDS011;48526;48.846;2.322;2023-07-02T10:47:32;23.50;;;16.50;;
62479;SDS011;48526;48.846;2.322;2023-07-02T10:50:59;20.25;;;18.00;;
62479;SDS011;48526;48.846;2.322;2023-07-02T10:57:20;20.75;;;17.00;;
62479;SDS011;48526;48.846;2.322;2023-07-02T11:03:54;19.75;;;16.00;;
62479;SDS011;48526;48.846;2.322;2023-07-02T11:32:55;16.75;;;14.75;;
62479;SDS011;48526;48.846;2.322;2023-07-02T11:39:17;20.50;;;15.25;;
62479;SDS011;48526;48.846;2.322;2023-07-02T11:45:43;18.75;;;16.25;;
62479;SDS011;48526;48.846;2.322;2023-07-02T11:48:26;20.00;;;16.75;;
62479;SDS011;48526;48.846;2.322;2023-07-02T12:01:18;20.75;;;15.75;;
62479;SDS011;48526;48.846;2.322;2023-07-02T12:07:42;21.25;;;17.75;;
62479;SDS011;48526;48.846;2.322;2023-07-02T12:17:48;15.25;;;13.25;;
62479;SDS011;48526;48.846;2.322;2023-07-02T12:20:56;20.75;;;16.00;;
62479;SDS011;48526;48.846;2.322;2023-07-02T12:27:17;14.25;;;13.00;;
62479;SDS011;48526;48.846;2.322;2023-07-02T12:30:25;19.00;;;14.00;;
62479;SDS011;48526;48.846;2.322;2023-07-02T12:33:34;15.75;;;11.25;;
62479;SDS011;48526;48.846;2.322;2023-07-02T12:36:35;16.00;;;14.50;;
62479;SDS011;48526;48.846;2.322;2023-07-02T12:46:01;15.00;;;13.75;;
62479;SDS011;48526;48.846;2.322;2023-07-02T12:48:42;15.25;;;12.50;;
62479;SDS011;48526;48.846;2.322;2023-07-02T12:55:07;22.50;;;16.75;;
62479;SDS011;48526;48.846;2.322;2023-07-02T12:58:13;16.25;;;14.50;;
62479;SDS011;48526;48.846;2.322;2023-07-02T13:01:17;12.25;;;12.25;;
62479;SDS011;48526;48.846;2.322;2023-07-02T13:04:33;18.50;;;13.25;;
62479;SDS011;48526;48.846;2.322;2023-07-02T13:07:39;18.50;;;12.00;;
62479;SDS011;48526;48.846;2.322;2023-07-02T13:11:00;16.00;;;11.50;;
62479;SDS011;48526;48.846;2.322;2023-07-02T13:13:52;14.75;;;10.00;;
62479;SDS011;48526;48.846;2.322;2023-07-02T13:16:52;14.75;;;11.50;;
62479;SDS011;48526;48.846;2.322;2023-07-02T13:19:54;14.50;;;13.75;;
62479;SDS011;48526;48.846;2.322;2023-07-02T13:26:34;12.00;;;8.25;;
62479;SDS011;48526;48.846;2.322;2023-07-02T13:33:16;11.75;;;9.25;;
62479;SDS011;48526;48.846;2.322;2023-07-02T13:39:39;14.00;;;11.75;;
62479;SDS011;48526;48.846;2.322;2023-07-02T13:42:58;16.25;;;13.00;;
62479;SDS011;48526;48.846;2.322;2023-07-02T13:52:12;14.00;;;12.00;;
62479;SDS011;48526;48.846;2.322;2023-07-02T13:55:11;12.00;;;10.75;;
62479;SDS011;48526;48.846;2.322;2023-07-02T13:58:24;13.25;;;12.00;;
62479;SDS011;48526;48.846;2.322;2023-07-02T14:01:31;14.25;;;11.25;;
62479;SDS011;48526;48.846;2.322;2023-07-02T14:04:09;13.75;;;11.50;;
62479;SDS011;48526;48.846;2.322;2023-07-02T14:30:44;12.25;;;10.00;;
62479;SDS011;48526;48.846;2.322;2023-07-02T14:33:59;11.25;;;10.25;;
62479;SDS011;48526;48.846;2.322;2023-07-02T14:40:16;12.50;;;10.75;;
62479;SDS011;48526;48.846;2.322;2023-07-02T14:53:06;13.75;;;10.75;;
62479;SDS011;48526;48.846;2.322;2023-07-02T15:03:03;13.75;;;12.75;;
62479;SDS011;48526;48.846;2.322;2023-07-02T15:12:24;15.75;;;12.50;;
62479;SDS011;48526;48.846;2.322;2023-07-02T15:19:10;17.25;;;16.25;;
62479;SDS011;48526;48.846;2.322;2023-07-02T15:22:22;14.00;;;13.25;;
62479;SDS011;48526;48.846;2.322;2023-07-02T15:25:26;14.00;;;12.75;;
62479;SDS011;48526;48.846;2.322;2023-07-02T15:38:33;11.50;;;10.25;;
62479;SDS011;48526;48.846;2.322;2023-07-02T15:41:52;12.50;;;9.75;;
62479;SDS011;48526;48.846;2.322;2023-07-02T15:57:49;18.25;;;13.00;;
62479;SDS011;48526;48.846;2.322;2023-07-02T16:07:44;13.50;;;10.75;;
62479;SDS011;48526;48.846;2.322;2023-07-02T16:10:28;11.75;;;11.00;;
62479;SDS011;48526;48.846;2.322;2023-07-02T16:17:10;13.50;;;13.00;;
62479;SDS011;48526;48.846;2.322;2023-07-02T16:19:58;15.75;;;11.00;;
62479;SDS011;48526;48.846;2.322;2023-07-02T16:30:04;14.00;;;9.50;;
62479;SDS011;48526;48.846;2.322;2023-07-02T16:32:58;12.50;;;9.50;;
62479;SDS011;48526;48.846;2.322;2023-07-02T16:46:16;12.75;;;10.25;;
62479;SDS011;48526;48.846;2.322;2023-07-02T16:52:31;11.50;;;10.50;;
62479;SDS011;48526;48.846;2.322;2023-07-02T17:08:58;12.25;;;10.00;;
62479;SDS011;48526;48.846;2.322;2023-07-02T17:15:37;12.00;;;11.75;;
62479;SDS011;48526;48.846;2.322;2023-07-02T17:19:00;13.25;;;11.25;;
62479;SDS011;48526;48.846;2.322;2023-07-02T17:28:40;11.00;;;8.75;;
62479;SDS011;48526;48.846;2.322;2023-07-02T18:09:48;10.75;;;9.75;;
62479;SDS011;48526;48.846;2.322;2023-07-02T18:12:34;13.75;;;9.00;;
62479;SDS011;48526;48.846;2.322;2023-07-02T18:15:32;11.25;;;9.25;;
62479;SDS011;48526;48.846;2.322;2023-07-02T18:21:55;11.50;;;9.50;;
62479;SDS011;48526;48.846;2.322;2023-07-02T18:25:19;15.00;;;8.50;;
62479;SDS011;48526;48.846;2.322;2023-07-02T18:31:42;13.25;;;9.75;;
62479;SDS011;48526;48.846;2.322;2023-07-02T18:34:38;8.50;;;8.50;;
62479;SDS011;48526;48.846;2.322;2023-07-02T18:37:17;6.75;;;6.50;;
62479;SDS011;48526;48.846;2.322;2023-07-02T18:39:59;9.75;;;8.50;;
62479;SDS011;48526;48.846;2.322;2023-07-02T18:42:46;9.50;;;6.50;;
62479;SDS011;48526;48.846;2.322;2023-07-02T18:48:43;10.25;;;8.25;;
62479;SDS011;48526;48.846;2.322;2023-07-02T18:51:33;11.25;;;10.50;;
62479;SDS011;48526;48.846;2.322;2023-07-02T18:57:15;11.50;;;10.50;;
62479;SDS011;48526;48.846;2.322;2023-07-02T19:00:31;9.75;;;9.75;;
62479;SDS011;48526;48.846;2.322;2023-07-02T19:06:39;20.75;;;16.25;;
62479;SDS011;48526;48.846;2.322;2023-07-02T19:09:37;13.00;;;8.25;;
62479;SDS011;48526;48.846;2.322;2023-07-02T19:12:41;9.50;;;9.00;;
62479;SDS011;48526;48.846;2.322;2023-07-02T19:15:54;9.50;;;7.25;;
62479;SDS011;48526;48.846;2.322;2023-07-02T19:18:50;7.00;;;6.75;;
62479;SDS011;48526;48.846;2.322;2023-07-02T19:28:31;9.00;;;8.00;;
62479;SDS011;48526;48.846;2.322;2023-07-02T19:31:00;9.00;;;6.25;;
62479;SDS011;48526;48.846;2.322;2023-07-02T19:33:27;9.50;;;7.00;;
62479;SDS011;48526;48.846;2.322;2023-07-02T19:35:52;4.25;;;4.25;;
62479;SDS011;48526;48.846;2.322;2023-07-02T19:38:18;9.75;;;7.75;;
62479;SDS011;48526;48.846;2.322;2023-07-02T19:40:51;9.00;;;7.50;;
62479;SDS011;48526;48.846;2.322;2023-07-02T19:43:18;8.75;;;6.25;;
62479;SDS011;48526;48.846;2.322;2023-07-02T19:45:43;7.00;;;5.75;;
62479;SDS011;48526;48.846;2.322;2023-07-02T19:48:09;7.25;;;5.00;;
62479;SDS011;48526;48.846;2.322;2023-07-02T19:50:34;8.25;;;7.00;;
62479;SDS011;48526;48.846;2.322;2023-07-02T19:52:59;6.50;;;6.00;;
62479;SDS011;48526;48.846;2.322;2023-07-02T19:55:28;5.75;;;5.00;;
62479;SDS011;48526;48.846;2.322;2023-07-02T19:57:53;8.25;;;6.25;;
62479;SDS011;48526;48.846;2.322;2023-07-02T20:00:19;5.00;;;5.00;;
62479;SDS011;48526;48.846;2.322;2023-07-02T20:02:44;8.00;;;4.50;;
62479;SDS011;48526;48.846;2.322;2023-07-02T20:05:09;3.75;;;1.50;;
62479;SDS011;48526;48.846;2.322;2023-07-02T20:07:35;8.25;;;4.75;;
62479;SDS011;48526;48.846;2.322;2023-07-02T20:10:03;8.75;;;6.00;;
62479;SDS011;48526;48.846;2.322;2023-07-02T20:12:30;7.50;;;7.50;;
62479;SDS011;48526;48.846;2.322;2023-07-02T20:28:54;7.25;;;5.00;;
62479;SDS011;48526;48.846;2.322;2023-07-02T20:31:40;6.75;;;5.75;;
62479;SDS011;48526;48.846;2.322;2023-07-02T20:34:06;8.75;;;7.00;;
62479;SDS011;48526;48.846;2.322;2023-07-02T20:36:31;9.00;;;7.25;;
62479;SDS011;48526;48.846;2.322;2023-07-02T20:38:58;8.50;;;7.50;;
62479;SDS011;48526;48.846;2.322;2023-07-02T20:41:24;12.75;;;7.25;;
62479;SDS011;48526;48.846;2.322;2023-07-02T20:43:52;8.50;;;6.00;;
62479;SDS011;48526;48.846;2.322;2023-07-02T20:46:18;9.25;;;7.25;;
62479;SDS011;48526;48.846;2.322;2023-07-02T20:48:45;8.00;;;5.00;;
62479;SDS011;48526;48.846;2.322;2023-07-02T20:51:14;8.25;;;6.25;;
62479;SDS011;48526;48.846;2.322;2023-07-02T20:53:39;5.25;;;3.75;;
62479;SDS011;48526;48.846;2.322;2023-07-02T20:56:05;7.00;;;5.50;;
62479;SDS011;48526;48.846;2.322;2023-07-02T20:58:30;9.50;;;8.00;;
62479;SDS011;48526;48.846;2.322;2023-07-02T21:01:02;8.00;;;3.25;;
62479;SDS011;48526;48.846;2.322;2023-07-02T21:03:29;5.50;;;4.25;;
62479;SDS011;48526;48.846;2.322;2023-07-02T21:05:54;10.50;;;8.50;;
62479;SDS011;48526;48.846;2.322;2023-07-02T21:08:23;6.75;;;4.75;;
62479;SDS011;48526;48.846;2.322;2023-07-02T21:10:48;4.75;;;4.25;;
62479;SDS011;48526;48.846;2.322;2023-07-02T21:13:14;7.00;;;6.50;;
62479;SDS011;48526;48.846;2.322;2023-07-02T21:15:39;8.00;;;6.00;;
62479;SDS011;48526;48.846;2.322;2023-07-02T21:18:04;6.00;;;5.00;;
62479;SDS011;48526;48.846;2.322;2023-07-02T21:20:30;5.25;;;5.00;;
62479;SDS011;48526;48.846;2.322;2023-07-02T21:22:55;9.00;;;6.75;;
62479;SDS011;48526;48.846;2.322;2023-07-02T21:25:20;5.50;;;4.00;;
62479;SDS011;48526;48.846;2.322;2023-07-02T21:27:46;12.00;;;6.50;;
62479;SDS011;48526;48.846;2.322;2023-07-02T21:30:12;7.75;;;4.75;;
62479;SDS011;48526;48.846;2.322;2023-07-02T21:32:37;4.50;;;4.00;;
62479;SDS011;48526;48.846;2.322;2023-07-02T21:35:04;5.50;;;4.00;;
62479;SDS011;48526;48.846;2.322;2023-07-02T21:37:29;8.50;;;5.00;;
62479;SDS011;48526;48.846;2.322;2023-07-02T21:39:55;4.00;;;3.75;;
62479;SDS011;48526;48.846;2.322;2023-07-02T21:42:20;6.00;;;3.00;;
62479;SDS011;48526;48.846;2.322;2023-07-02T21:44:45;7.50;;;5.25;;
62479;SDS011;48526;48.846;2.322;2023-07-02T21:47:11;3.00;;;2.75;;
62479;SDS011;48526;48.846;2.322;2023-07-02T21:49:36;4.75;;;4.50;;
62479;SDS011;48526;48.846;2.322;2023-07-02T21:52:01;4.75;;;3.50;;
62479;SDS011;48526;48.846;2.322;2023-07-02T21:54:27;5.00;;;3.75;;
62479;SDS011;48526;48.846;2.322;2023-07-02T21:56:52;7.00;;;3.75;;
62479;SDS011;48526;48.846;2.322;2023-07-02T21:59:18;6.25;;;5.50;;
62479;SDS011;48526;48.846;2.322;2023-07-02T22:01:43;5.00;;;4.00;;
62479;SDS011;48526;48.846;2.322;2023-07-02T22:04:08;3.00;;;3.00;;
62479;SDS011;48526;48.846;2.322;2023-07-02T22:06:34;6.00;;;5.00;;
62479;SDS011;48526;48.846;2.322;2023-07-02T22:08:59;4.00;;;4.00;;
62479;SDS011;48526;48.846;2.322;2023-07-02T22:11:28;5.00;;;3.25;;
62479;SDS011;48526;48.846;2.322;2023-07-02T22:13:54;4.75;;;4.00;;
62479;SDS011;48526;48.846;2.322;2023-07-02T22:16:19;4.00;;;3.00;;
62479;SDS011;48526;48.846;2.322;2023-07-02T22:18:45;5.75;;;4.00;;
62479;SDS011;48526;48.846;2.322;2023-07-02T22:21:10;6.75;;;4.75;;
62479;SDS011;48526;48.846;2.322;2023-07-02T22:23:36;5.00;;;3.75;;
62479;SDS011;48526;48.846;2.322;2023-07-02T22:26:02;4.50;;;4.25;;
62479;SDS011;48526;48.846;2.322;2023-07-02T22:28:28;4.00;;;4.00;;
62479;SDS011;48526;48.846;2.322;2023-07-02T22:30:54;5.00;;;4.00;;
62479;SDS011;48526;48.846;2.322;2023-07-02T22:33:19;3.50;;;3.00;;
62479;SDS011;48526;48.846;2.322;2023-07-02T22:35:45;4.00;;;4.00;;
62479;SDS011;48526;48.846;2.322;2023-07-02T22:38:11;5.00;;;3.75;;
62479;SDS011;48526;48.846;2.322;2023-07-02T22:40:36;6.00;;;4.50;;
62479;SDS011;48526;48.846;2.322;2023-07-02T22:43:01;3.50;;;3.50;;
62479;SDS011;48526;48.846;2.322;2023-07-02T22:45:27;3.25;;;3.25;;
62479;SDS011;48526;48.846;2.322;2023-07-02T22:47:52;7.50;;;4.50;;
62479;SDS011;48526;48.846;2.322;2023-07-02T22:50:18;5.25;;;3.25;;
62479;SDS011;48526;48.846;2.322;2023-07-02T22:52:43;7.25;;;3.50;;
62479;SDS011;48526;48.846;2.322;2023-07-02T22:55:10;6.00;;;3.50;;
62479;SDS011;48526;48.846;2.322;2023-07-02T22:57:37;9.00;;;3.50;;